sensor_id;sensor_type;location;lat;lon;timestamp;P1;durP1;ratioP1;P2;durP2;ratioP2
55758;SDS011;41678;52.126;20.664;2023-05-07T00:04:12;7.32;;;2.72;;
55758;SDS011;41678;52.126;20.664;2023-05-07T00:09:32;4.75;;;1.52;;
55758;SDS011;41678;52.126;20.664;2023-05-07T00:14:53;14.98;;;2.78;;
55758;SDS011;41678;52.126;20.664;2023-05-07T00:20:12;7.35;;;2.50;;
55758;SDS011;41678;52.126;20.664;2023-05-07T00:25:31;7.07;;;2.70;;
55758;SDS011;41678;52.126;20.664;2023-05-07T00:30:51;7.80;;;2.38;;
55758;SDS011;41678;52.126;20.664;2023-05-07T00:36:11;8.05;;;2.70;;
55758;SDS011;41678;52.126;20.664;2023-05-07T00:41:31;7.07;;;2.42;;
55758;SDS011;41678;52.126;20.664;2023-05-07T00:46:52;8.95;;;2.55;;
55758;SDS011;41678;52.126;20.664;2023-05-07T00:52:13;6.95;;;2.42;;
55758;SDS011;41678;52.126;20.664;2023-05-07T00:57:36;5.68;;;2.25;;
55758;SDS011;41678;52.126;20.664;2023-05-07T01:02:57;7.43;;;2.42;;
55758;SDS011;41678;52.126;20.664;2023-05-07T01:08:16;5.82;;;2.13;;
55758;SDS011;41678;52.126;20.664;2023-05-07T01:13:37;9.48;;;2.80;;
55758;SDS011;41678;52.126;20.664;2023-05-07T01:18:58;6.13;;;2.75;;
55758;SDS011;41678;52.126;20.664;2023-05-07T01:24:19;7.35;;;3.15;;
55758;SDS011;41678;52.126;20.664;2023-05-07T01:29:40;6.65;;;2.90;;
55758;SDS011;41678;52.126;20.664;2023-05-07T01:35:01;5.75;;;2.50;;
55758;SDS011;41678;52.126;20.664;2023-05-07T01:40:24;5.45;;;2.17;;
55758;SDS011;41678;52.126;20.664;2023-05-07T01:45:45;6.65;;;2.50;;
55758;SDS011;41678;52.126;20.664;2023-05-07T01:51:05;7.25;;;3.05;;
55758;SDS011;41678;52.126;20.664;2023-05-07T01:56:25;5.50;;;1.90;;
55758;SDS011;41678;52.126;20.664;2023-05-07T02:01:45;7.13;;;2.50;;
55758;SDS011;41678;52.126;20.664;2023-05-07T02:07:05;4.80;;;1.98;;
55758;SDS011;41678;52.126;20.664;2023-05-07T02:12:25;7.47;;;2.20;;
55758;SDS011;41678;52.126;20.664;2023-05-07T02:17:58;5.70;;;1.92;;
55758;SDS011;41678;52.126;20.664;2023-05-07T02:23:22;5.68;;;1.75;;
55758;SDS011;41678;52.126;20.664;2023-05-07T02:28:42;5.07;;;1.92;;
55758;SDS011;41678;52.126;20.664;2023-05-07T02:34:03;5.55;;;1.95;;
55758;SDS011;41678;52.126;20.664;2023-05-07T02:39:23;9.48;;;1.98;;
55758;SDS011;41678;52.126;20.664;2023-05-07T02:44:42;4.45;;;1.95;;
55758;SDS011;41678;52.126;20.664;2023-05-07T02:50:03;5.45;;;1.92;;
55758;SDS011;41678;52.126;20.664;2023-05-07T02:55:23;5.40;;;2.13;;
55758;SDS011;41678;52.126;20.664;2023-05-07T03:00:43;4.68;;;1.88;;
55758;SDS011;41678;52.126;20.664;2023-05-07T03:06:13;8.85;;;2.58;;
55758;SDS011;41678;52.126;20.664;2023-05-07T03:11:32;5.35;;;2.13;;
55758;SDS011;41678;52.126;20.664;2023-05-07T03:16:53;4.78;;;1.75;;
55758;SDS011;41678;52.126;20.664;2023-05-07T03:22:12;6.00;;;1.98;;
55758;SDS011;41678;52.126;20.664;2023-05-07T03:27:32;8.30;;;1.98;;
55758;SDS011;41678;52.126;20.664;2023-05-07T03:32:52;7.68;;;2.13;;
55758;SDS011;41678;52.126;20.664;2023-05-07T03:38:12;7.07;;;1.75;;
55758;SDS011;41678;52.126;20.664;2023-05-07T03:43:32;5.72;;;1.55;;
55758;SDS011;41678;52.126;20.664;2023-05-07T03:48:58;8.27;;;2.20;;
55758;SDS011;41678;52.126;20.664;2023-05-07T03:54:17;2.78;;;1.08;;
55758;SDS011;41678;52.126;20.664;2023-05-07T03:59:39;5.63;;;1.67;;
55758;SDS011;41678;52.126;20.664;2023-05-07T04:05:01;4.35;;;1.70;;
55758;SDS011;41678;52.126;20.664;2023-05-07T04:10:21;4.68;;;1.75;;
55758;SDS011;41678;52.126;20.664;2023-05-07T04:15:44;5.50;;;2.03;;
55758;SDS011;41678;52.126;20.664;2023-05-07T04:21:18;5.70;;;1.95;;
55758;SDS011;41678;52.126;20.664;2023-05-07T04:26:40;5.32;;;1.83;;
55758;SDS011;41678;52.126;20.664;2023-05-07T04:32:00;4.90;;;1.83;;
55758;SDS011;41678;52.126;20.664;2023-05-07T04:37:20;6.57;;;2.28;;
55758;SDS011;41678;52.126;20.664;2023-05-07T04:42:41;4.85;;;1.90;;
55758;SDS011;41678;52.126;20.664;2023-05-07T04:48:01;6.43;;;2.33;;
55758;SDS011;41678;52.126;20.664;2023-05-07T04:53:23;8.80;;;2.35;;
55758;SDS011;41678;52.126;20.664;2023-05-07T04:58:44;7.20;;;1.90;;
55758;SDS011;41678;52.126;20.664;2023-05-07T05:04:04;5.95;;;1.90;;
55758;SDS011;41678;52.126;20.664;2023-05-07T05:09:24;6.63;;;1.40;;
55758;SDS011;41678;52.126;20.664;2023-05-07T05:14:44;4.72;;;1.58;;
55758;SDS011;41678;52.126;20.664;2023-05-07T05:20:04;6.10;;;1.63;;
55758;SDS011;41678;52.126;20.664;2023-05-07T05:25:25;4.88;;;1.85;;
55758;SDS011;41678;52.126;20.664;2023-05-07T05:30:45;5.38;;;2.15;;
55758;SDS011;41678;52.126;20.664;2023-05-07T05:36:05;9.52;;;1.92;;
55758;SDS011;41678;52.126;20.664;2023-05-07T05:41:26;7.40;;;1.98;;
55758;SDS011;41678;52.126;20.664;2023-05-07T05:46:46;7.65;;;2.20;;
55758;SDS011;41678;52.126;20.664;2023-05-07T05:52:07;4.95;;;1.67;;
55758;SDS011;41678;52.126;20.664;2023-05-07T05:57:28;4.05;;;1.70;;
55758;SDS011;41678;52.126;20.664;2023-05-07T06:02:48;4.93;;;1.80;;
55758;SDS011;41678;52.126;20.664;2023-05-07T06:08:14;5.78;;;1.52;;
55758;SDS011;41678;52.126;20.664;2023-05-07T06:13:34;5.85;;;1.70;;
55758;SDS011;41678;52.126;20.664;2023-05-07T06:18:54;6.07;;;1.73;;
55758;SDS011;41678;52.126;20.664;2023-05-07T06:24:13;6.55;;;1.98;;
55758;SDS011;41678;52.126;20.664;2023-05-07T06:29:33;4.43;;;1.60;;
55758;SDS011;41678;52.126;20.664;2023-05-07T06:34:55;4.10;;;1.63;;
55758;SDS011;41678;52.126;20.664;2023-05-07T06:40:15;5.40;;;1.60;;
55758;SDS011;41678;52.126;20.664;2023-05-07T06:45:35;3.35;;;1.52;;
55758;SDS011;41678;52.126;20.664;2023-05-07T06:50:57;4.83;;;1.63;;
55758;SDS011;41678;52.126;20.664;2023-05-07T06:56:18;6.75;;;1.90;;
55758;SDS011;41678;52.126;20.664;2023-05-07T07:01:38;4.53;;;1.80;;
55758;SDS011;41678;52.126;20.664;2023-05-07T07:06:58;7.95;;;2.08;;
55758;SDS011;41678;52.126;20.664;2023-05-07T07:12:18;5.18;;;2.03;;
55758;SDS011;41678;52.126;20.664;2023-05-07T07:17:38;6.88;;;2.20;;
55758;SDS011;41678;52.126;20.664;2023-05-07T07:22:59;3.72;;;1.23;;
55758;SDS011;41678;52.126;20.664;2023-05-07T07:28:20;5.10;;;1.80;;
55758;SDS011;41678;52.126;20.664;2023-05-07T07:33:41;5.85;;;1.90;;
55758;SDS011;41678;52.126;20.664;2023-05-07T07:39:01;5.32;;;1.60;;
55758;SDS011;41678;52.126;20.664;2023-05-07T07:44:21;4.80;;;1.42;;
55758;SDS011;41678;52.126;20.664;2023-05-07T07:49:45;5.18;;;1.92;;
55758;SDS011;41678;52.126;20.664;2023-05-07T07:55:06;4.90;;;1.60;;
55758;SDS011;41678;52.126;20.664;2023-05-07T08:00:27;8.10;;;2.13;;
55758;SDS011;41678;52.126;20.664;2023-05-07T08:05:49;4.78;;;1.83;;
55758;SDS011;41678;52.126;20.664;2023-05-07T08:11:10;4.53;;;1.73;;
55758;SDS011;41678;52.126;20.664;2023-05-07T08:16:30;3.40;;;1.20;;
55758;SDS011;41678;52.126;20.664;2023-05-07T08:21:51;4.72;;;1.50;;
55758;SDS011;41678;52.126;20.664;2023-05-07T08:27:12;4.28;;;1.60;;
55758;SDS011;41678;52.126;20.664;2023-05-07T08:32:34;7.82;;;1.70;;
55758;SDS011;41678;52.126;20.664;2023-05-07T08:37:54;5.00;;;1.60;;
55758;SDS011;41678;52.126;20.664;2023-05-07T08:43:15;6.13;;;2.05;;
55758;SDS011;41678;52.126;20.664;2023-05-07T08:48:37;10.70;;;3.08;;
55758;SDS011;41678;52.126;20.664;2023-05-07T08:54:02;9.00;;;1.65;;
55758;SDS011;41678;52.126;20.664;2023-05-07T08:59:25;5.13;;;2.00;;
55758;SDS011;41678;52.126;20.664;2023-05-07T09:04:45;6.90;;;2.20;;
55758;SDS011;41678;52.126;20.664;2023-05-07T09:10:05;4.53;;;1.83;;
55758;SDS011;41678;52.126;20.664;2023-05-07T09:15:28;3.65;;;1.38;;
55758;SDS011;41678;52.126;20.664;2023-05-07T09:20:48;6.30;;;2.20;;
55758;SDS011;41678;52.126;20.664;2023-05-07T09:26:10;6.47;;;1.95;;
55758;SDS011;41678;52.126;20.664;2023-05-07T09:31:37;5.28;;;1.50;;
55758;SDS011;41678;52.126;20.664;2023-05-07T09:36:59;6.15;;;2.13;;
55758;SDS011;41678;52.126;20.664;2023-05-07T09:42:22;13.55;;;1.85;;
55758;SDS011;41678;52.126;20.664;2023-05-07T09:47:45;6.07;;;2.22;;
55758;SDS011;41678;52.126;20.664;2023-05-07T09:53:08;8.05;;;2.53;;
55758;SDS011;41678;52.126;20.664;2023-05-07T09:58:29;7.55;;;3.17;;
55758;SDS011;41678;52.126;20.664;2023-05-07T10:03:52;6.38;;;1.83;;
55758;SDS011;41678;52.126;20.664;2023-05-07T10:09:13;4.13;;;1.35;;
55758;SDS011;41678;52.126;20.664;2023-05-07T10:14:34;5.32;;;1.90;;
55758;SDS011;41678;52.126;20.664;2023-05-07T10:19:55;6.85;;;1.83;;
55758;SDS011;41678;52.126;20.664;2023-05-07T10:36:17;17.88;;;3.83;;
55758;SDS011;41678;52.126;20.664;2023-05-07T10:41:38;6.93;;;2.33;;
55758;SDS011;41678;52.126;20.664;2023-05-07T10:52:39;9.63;;;3.00;;
55758;SDS011;41678;52.126;20.664;2023-05-07T11:15:38;12.15;;;6.68;;
55758;SDS011;41678;52.126;20.664;2023-05-07T11:27:28;5.93;;;1.42;;
55758;SDS011;41678;52.126;20.664;2023-05-07T11:32:49;4.72;;;1.50;;
55758;SDS011;41678;52.126;20.664;2023-05-07T11:38:10;3.37;;;1.20;;
55758;SDS011;41678;52.126;20.664;2023-05-07T11:43:33;8.13;;;1.60;;
55758;SDS011;41678;52.126;20.664;2023-05-07T11:54:15;6.15;;;2.17;;
55758;SDS011;41678;52.126;20.664;2023-05-07T11:59:39;14.63;;;3.47;;
55758;SDS011;41678;52.126;20.664;2023-05-07T12:05:03;12.40;;;4.57;;
55758;SDS011;41678;52.126;20.664;2023-05-07T12:10:23;4.68;;;1.75;;
55758;SDS011;41678;52.126;20.664;2023-05-07T12:15:44;4.10;;;1.50;;
55758;SDS011;41678;52.126;20.664;2023-05-07T12:21:04;6.63;;;2.33;;
55758;SDS011;41678;52.126;20.664;2023-05-07T12:26:24;5.32;;;1.98;;
55758;SDS011;41678;52.126;20.664;2023-05-07T12:31:45;5.75;;;2.22;;
55758;SDS011;41678;52.126;20.664;2023-05-07T12:37:05;4.50;;;1.48;;
55758;SDS011;41678;52.126;20.664;2023-05-07T12:42:24;6.32;;;1.98;;
55758;SDS011;41678;52.126;20.664;2023-05-07T12:47:45;30.75;;;9.30;;
55758;SDS011;41678;52.126;20.664;2023-05-07T12:53:07;14.43;;;4.82;;
55758;SDS011;41678;52.126;20.664;2023-05-07T12:58:32;6.70;;;2.63;;
55758;SDS011;41678;52.126;20.664;2023-05-07T13:03:53;7.35;;;1.42;;
55758;SDS011;41678;52.126;20.664;2023-05-07T13:09:12;4.60;;;1.88;;
55758;SDS011;41678;52.126;20.664;2023-05-07T13:14:32;5.55;;;2.45;;
55758;SDS011;41678;52.126;20.664;2023-05-07T13:19:51;5.80;;;1.60;;
55758;SDS011;41678;52.126;20.664;2023-05-07T13:25:10;4.43;;;1.50;;
55758;SDS011;41678;52.126;20.664;2023-05-07T13:30:30;10.63;;;2.10;;
55758;SDS011;41678;52.126;20.664;2023-05-07T13:35:49;4.60;;;0.82;;
55758;SDS011;41678;52.126;20.664;2023-05-07T13:41:09;11.70;;;2.72;;
55758;SDS011;41678;52.126;20.664;2023-05-07T13:46:29;9.20;;;1.67;;
55758;SDS011;41678;52.126;20.664;2023-05-07T13:51:49;6.95;;;2.05;;
55758;SDS011;41678;52.126;20.664;2023-05-07T13:57:08;7.25;;;2.38;;
55758;SDS011;41678;52.126;20.664;2023-05-07T14:02:28;3.90;;;1.33;;
55758;SDS011;41678;52.126;20.664;2023-05-07T14:07:49;12.48;;;2.03;;
55758;SDS011;41678;52.126;20.664;2023-05-07T14:13:10;8.15;;;1.95;;
55758;SDS011;41678;52.126;20.664;2023-05-07T14:18:30;7.15;;;2.50;;
55758;SDS011;41678;52.126;20.664;2023-05-07T14:23:49;3.38;;;1.10;;
55758;SDS011;41678;52.126;20.664;2023-05-07T14:29:09;5.75;;;1.73;;
55758;SDS011;41678;52.126;20.664;2023-05-07T14:34:29;5.95;;;1.30;;
55758;SDS011;41678;52.126;20.664;2023-05-07T14:39:49;3.75;;;1.13;;
55758;SDS011;41678;52.126;20.664;2023-05-07T14:45:09;11.90;;;3.53;;
55758;SDS011;41678;52.126;20.664;2023-05-07T14:50:29;11.27;;;4.07;;
55758;SDS011;41678;52.126;20.664;2023-05-07T14:55:49;7.15;;;1.67;;
55758;SDS011;41678;52.126;20.664;2023-05-07T15:01:09;3.72;;;1.30;;
55758;SDS011;41678;52.126;20.664;2023-05-07T15:06:29;6.70;;;1.38;;
55758;SDS011;41678;52.126;20.664;2023-05-07T15:11:49;4.43;;;1.27;;
55758;SDS011;41678;52.126;20.664;2023-05-07T15:17:09;4.78;;;1.60;;
55758;SDS011;41678;52.126;20.664;2023-05-07T15:22:29;5.53;;;1.70;;
55758;SDS011;41678;52.126;20.664;2023-05-07T15:27:48;4.03;;;1.40;;
55758;SDS011;41678;52.126;20.664;2023-05-07T15:33:08;12.98;;;1.45;;
55758;SDS011;41678;52.126;20.664;2023-05-07T15:38:27;7.90;;;1.58;;
55758;SDS011;41678;52.126;20.664;2023-05-07T15:43:48;4.88;;;1.48;;
55758;SDS011;41678;52.126;20.664;2023-05-07T15:49:09;3.75;;;1.40;;
55758;SDS011;41678;52.126;20.664;2023-05-07T15:54:29;3.55;;;1.10;;
55758;SDS011;41678;52.126;20.664;2023-05-07T15:59:49;4.93;;;1.42;;
55758;SDS011;41678;52.126;20.664;2023-05-07T16:05:09;4.88;;;1.50;;
55758;SDS011;41678;52.126;20.664;2023-05-07T16:10:29;8.45;;;1.70;;
55758;SDS011;41678;52.126;20.664;2023-05-07T16:15:54;5.72;;;1.48;;
55758;SDS011;41678;52.126;20.664;2023-05-07T16:21:15;5.82;;;1.13;;
55758;SDS011;41678;52.126;20.664;2023-05-07T16:26:36;6.55;;;2.08;;
55758;SDS011;41678;52.126;20.664;2023-05-07T16:32:13;7.25;;;1.85;;
55758;SDS011;41678;52.126;20.664;2023-05-07T16:37:38;4.07;;;1.35;;
55758;SDS011;41678;52.126;20.664;2023-05-07T16:42:59;3.45;;;1.15;;
55758;SDS011;41678;52.126;20.664;2023-05-07T16:48:19;4.68;;;1.35;;
55758;SDS011;41678;52.126;20.664;2023-05-07T16:53:39;5.38;;;1.70;;
55758;SDS011;41678;52.126;20.664;2023-05-07T17:03:36;4.83;;;1.60;;
55758;SDS011;41678;52.126;20.664;2023-05-07T17:08:56;5.00;;;1.60;;
55758;SDS011;41678;52.126;20.664;2023-05-07T17:14:15;6.38;;;2.10;;
55758;SDS011;41678;52.126;20.664;2023-05-07T17:19:36;4.78;;;1.67;;
55758;SDS011;41678;52.126;20.664;2023-05-07T17:24:57;4.93;;;1.73;;
55758;SDS011;41678;52.126;20.664;2023-05-07T17:30:17;6.18;;;2.10;;
55758;SDS011;41678;52.126;20.664;2023-05-07T17:35:37;6.57;;;1.88;;
55758;SDS011;41678;52.126;20.664;2023-05-07T17:40:57;5.32;;;1.75;;
55758;SDS011;41678;52.126;20.664;2023-05-07T17:46:17;7.15;;;2.08;;
55758;SDS011;41678;52.126;20.664;2023-05-07T17:51:36;6.20;;;2.45;;
55758;SDS011;41678;52.126;20.664;2023-05-07T17:56:56;8.57;;;2.30;;
55758;SDS011;41678;52.126;20.664;2023-05-07T18:02:16;9.57;;;4.75;;
55758;SDS011;41678;52.126;20.664;2023-05-07T18:07:35;13.65;;;2.75;;
55758;SDS011;41678;52.126;20.664;2023-05-07T18:12:55;11.75;;;3.00;;
55758;SDS011;41678;52.126;20.664;2023-05-07T18:18:15;12.05;;;3.42;;
55758;SDS011;41678;52.126;20.664;2023-05-07T18:23:36;17.50;;;3.67;;
55758;SDS011;41678;52.126;20.664;2023-05-07T18:28:56;15.25;;;4.18;;
55758;SDS011;41678;52.126;20.664;2023-05-07T18:34:16;27.40;;;4.65;;
55758;SDS011;41678;52.126;20.664;2023-05-07T18:39:35;26.88;;;5.25;;
55758;SDS011;41678;52.126;20.664;2023-05-07T18:44:54;13.65;;;5.28;;
55758;SDS011;41678;52.126;20.664;2023-05-07T18:50:14;14.48;;;5.20;;
55758;SDS011;41678;52.126;20.664;2023-05-07T18:55:34;19.02;;;8.35;;
55758;SDS011;41678;52.126;20.664;2023-05-07T19:00:54;24.05;;;8.25;;
55758;SDS011;41678;52.126;20.664;2023-05-07T19:06:14;28.00;;;9.80;;
55758;SDS011;41678;52.126;20.664;2023-05-07T19:11:34;18.65;;;8.13;;
55758;SDS011;41678;52.126;20.664;2023-05-07T19:16:53;17.40;;;7.82;;
55758;SDS011;41678;52.126;20.664;2023-05-07T19:22:13;25.70;;;9.27;;
55758;SDS011;41678;52.126;20.664;2023-05-07T19:27:33;28.77;;;8.55;;
55758;SDS011;41678;52.126;20.664;2023-05-07T19:32:53;19.80;;;7.18;;
55758;SDS011;41678;52.126;20.664;2023-05-07T19:38:13;17.80;;;7.82;;
55758;SDS011;41678;52.126;20.664;2023-05-07T19:43:33;17.20;;;6.30;;
55758;SDS011;41678;52.126;20.664;2023-05-07T19:48:56;15.73;;;6.80;;
55758;SDS011;41678;52.126;20.664;2023-05-07T19:54:16;14.98;;;5.93;;
55758;SDS011;41678;52.126;20.664;2023-05-07T19:59:35;16.60;;;6.97;;
55758;SDS011;41678;52.126;20.664;2023-05-07T20:04:55;13.40;;;6.70;;
55758;SDS011;41678;52.126;20.664;2023-05-07T20:10:15;19.58;;;7.50;;
55758;SDS011;41678;52.126;20.664;2023-05-07T20:15:35;18.25;;;8.23;;
55758;SDS011;41678;52.126;20.664;2023-05-07T20:20:55;22.92;;;9.30;;
55758;SDS011;41678;52.126;20.664;2023-05-07T20:26:15;19.23;;;8.45;;
55758;SDS011;41678;52.126;20.664;2023-05-07T20:31:34;19.85;;;8.05;;
55758;SDS011;41678;52.126;20.664;2023-05-07T20:36:54;27.98;;;9.18;;
55758;SDS011;41678;52.126;20.664;2023-05-07T20:42:13;26.17;;;8.18;;
55758;SDS011;41678;52.126;20.664;2023-05-07T20:47:33;19.58;;;8.00;;
55758;SDS011;41678;52.126;20.664;2023-05-07T20:52:53;19.98;;;8.45;;
55758;SDS011;41678;52.126;20.664;2023-05-07T20:58:13;33.58;;;8.38;;
55758;SDS011;41678;52.126;20.664;2023-05-07T21:03:33;19.85;;;8.30;;
55758;SDS011;41678;52.126;20.664;2023-05-07T21:08:52;24.00;;;10.07;;
55758;SDS011;41678;52.126;20.664;2023-05-07T21:14:12;18.25;;;8.82;;
55758;SDS011;41678;52.126;20.664;2023-05-07T21:19:31;23.70;;;9.35;;
55758;SDS011;41678;52.126;20.664;2023-05-07T21:24:51;23.85;;;9.65;;
55758;SDS011;41678;52.126;20.664;2023-05-07T21:30:11;20.73;;;8.93;;
55758;SDS011;41678;52.126;20.664;2023-05-07T21:35:31;24.42;;;10.10;;
55758;SDS011;41678;52.126;20.664;2023-05-07T21:40:51;23.60;;;10.02;;
55758;SDS011;41678;52.126;20.664;2023-05-07T21:46:10;24.60;;;10.85;;
55758;SDS011;41678;52.126;20.664;2023-05-07T21:51:31;23.60;;;11.90;;
55758;SDS011;41678;52.126;20.664;2023-05-07T21:56:52;28.95;;;13.43;;
55758;SDS011;41678;52.126;20.664;2023-05-07T22:02:11;29.10;;;12.77;;
55758;SDS011;41678;52.126;20.664;2023-05-07T22:07:31;26.67;;;10.73;;
55758;SDS011;41678;52.126;20.664;2023-05-07T22:12:51;26.08;;;12.10;;
55758;SDS011;41678;52.126;20.664;2023-05-07T22:18:10;19.67;;;10.15;;
55758;SDS011;41678;52.126;20.664;2023-05-07T22:23:30;32.28;;;11.13;;
55758;SDS011;41678;52.126;20.664;2023-05-07T22:28:50;29.65;;;10.75;;
55758;SDS011;41678;52.126;20.664;2023-05-07T22:34:09;31.55;;;10.98;;
55758;SDS011;41678;52.126;20.664;2023-05-07T22:39:28;34.53;;;11.48;;
55758;SDS011;41678;52.126;20.664;2023-05-07T22:44:52;27.02;;;11.85;;
55758;SDS011;41678;52.126;20.664;2023-05-07T22:50:13;28.17;;;13.75;;
55758;SDS011;41678;52.126;20.664;2023-05-07T22:55:33;37.65;;;16.05;;
55758;SDS011;41678;52.126;20.664;2023-05-07T23:00:53;38.03;;;15.82;;
55758;SDS011;41678;52.126;20.664;2023-05-07T23:06:13;39.60;;;19.05;;
55758;SDS011;41678;52.126;20.664;2023-05-07T23:11:32;48.65;;;22.27;;
55758;SDS011;41678;52.126;20.664;2023-05-07T23:16:53;47.47;;;20.85;;
55758;SDS011;41678;52.126;20.664;2023-05-07T23:22:12;46.17;;;21.48;;
55758;SDS011;41678;52.126;20.664;2023-05-07T23:27:34;46.88;;;22.60;;
55758;SDS011;41678;52.126;20.664;2023-05-07T23:32:54;48.80;;;20.88;;
55758;SDS011;41678;52.126;20.664;2023-05-07T23:38:13;66.50;;;26.10;;
55758;SDS011;41678;52.126;20.664;2023-05-07T23:43:33;52.85;;;24.23;;
55758;SDS011;41678;52.126;20.664;2023-05-07T23:48:52;47.00;;;23.92;;
55758;SDS011;41678;52.126;20.664;2023-05-07T23:54:11;52.95;;;23.42;;
55758;SDS011;41678;52.126;20.664;2023-05-07T23:59:32;52.97;;;21.50;;
